Time;durP1;ratioP1;P1;durP2;ratioP2;P2;SDS_P1;SDS_P2;PMS_P1;PMS_P2;Temp;Humidity;BMP_temperature;BMP_pressure;BME280_temperature;BME280_humidity;BME280_pressure;Samples;Min_cycle;Max_cycle;Signal;HPM_P1;HPM_P2
2020/05/17 14:54:36;;;;;;;4.3;3.2;;;;;;;22.58;36.28613;941.1317;;;;
2020/05/17 14:57:01;;;;;;;2.7;1.8;;;;;;;22.63;36.14941;941.1281;;;;
2020/05/17 14:59:26;;;;;;;2.7;1.9;;;;;;;22.26;36.34277;941.1611;;;;
2020/05/17 15:01:59;;;;;;;2.9;1.8;;;;;;;22.07;36.9248;941.173;;;;
2020/05/17 15:04:31;;;;;;;3.3;2;;;;;;;22.15;36.49707;941.1522;;;;
2020/05/17 15:07:04;;;;;;;3.8;1.9;;;;;;;22;36.59082;941.2006;;;;
2020/05/17 15:09:38;;;;;;;3.7;1.6;;;;;;;22.08;37.78027;941.2338;;;;
2020/05/17 15:12:08;;;;;;;2.6;1.8;;;;;;;22.01;35.99316;941.2555;;;;
2020/05/17 15:14:36;;;;;;;3.6;1.8;;;;;;;21.94;35.96484;941.2267;;;;
2020/05/17 15:17:05;;;;;;;4.1;1.7;;;;;;;21.94;35.89453;941.1992;;;;
2020/05/17 15:19:35;;;;;;;3.5;1.7;;;;;;;21.86;36.2627;941.2054;;;;
2020/05/17 15:22:05;;;;;;;2.4;1.8;;;;;;;21.61;38.12695;941.2715;;;;
2020/05/17 15:24:45;;;;;;;2.1;1.7;;;;;;;21.73;36.79102;941.2756;;;;
2020/05/17 15:27:10;;;;;;;3.1;1.9;;;;;;;21.75;36.06641;941.2385;;;;
2020/05/17 15:29:52;;;;;;;3.3;2;;;;;;;21.65;36.97168;941.2147;;;;
2020/05/17 15:32:17;;;;;;;5.4;1.9;;;;;;;21.74;36.74512;941.2355;;;;
2020/05/17 15:34:46;;;;;;;3.7;1.8;;;;;;;21.78;36.26855;941.2368;;;;
2020/05/17 15:37:28;;;;;;;2.7;1.8;;;;;;;21.95;37.16016;941.2824;;;;
2020/05/17 15:39:53;;;;;;;3.1;1.9;;;;;;;21.92;36.2793;941.2469;;;;
2020/05/17 15:42:19;;;;;;;4;1.8;;;;;;;21.87;36.4502;941.1989;;;;
2020/05/17 15:44:47;;;;;;;2.8;1.8;;;;;;;21.87;36.09863;941.2394;;;;
2020/05/17 15:47:12;;;;;;;2.8;2;;;;;;;21.87;36.49707;941.2686;;;;
2020/05/17 15:49:42;;;;;;;2.9;1.8;;;;;;;21.91;36.7002;941.295;;;;
2020/05/17 15:52:10;;;;;;;2.6;1.8;;;;;;;21.91;37.0166;941.3695;;;;
2020/05/17 15:54:39;;;;;;;4.1;1.8;;;;;;;21.62;37.64746;941.293;;;;
2020/05/17 15:57:04;;;;;;;2.7;1.9;;;;;;;21.77;38.04688;941.3318;;;;
2020/05/17 15:59:34;;;;;;;2.3;1.8;;;;;;;21.72;36.58984;941.3683;;;;
2020/05/17 16:02:14;;;;;;;4.4;1.7;;;;;;;21.84;35.96777;941.3879;;;;
2020/05/17 16:04:48;;;;;;;3.3;1.8;;;;;;;21.98;36.89355;941.4705;;;;
2020/05/17 16:07:01;;;;;;;6;2;;;;;;;21.97;35.91992;941.4489;;;;
2020/05/17 16:09:24;;;;;;;3.9;1.8;;;;;;;22.07;36.01074;941.4442;;;;
2020/05/17 16:12:01;;;;;;;4.2;1.7;;;;;;;22.12;37.08105;941.4595;;;;
2020/05/17 16:14:28;;;;;;;2.5;1.7;;;;;;;22.39;36.82227;941.4792;;;;
2020/05/17 16:19:25;;;;;;;4.4;2.5;;;;;;;22.38;34.07617;941.3596;;;;
2020/05/17 16:22:08;;;;;;;4.4;2.3;;;;;;;22.44;35.66406;941.3603;;;;
2020/05/17 16:24:42;;;;;;;3.5;2;;;;;;;22.5;36.02246;941.4395;;;;
2020/05/17 16:28:07;;;;;;;3.5;1.8;;;;;;;22.45;36.06445;941.4183;;;;
2020/05/17 16:29:43;;;;;;;2.2;1.9;;;;;;;22.37;34.76758;941.4205;;;;
2020/05/17 16:44:40;;;;;;;3.6;2;;;;;;;21.44;35.03418;941.4819;;;;
2020/05/17 16:49:50;;;;;;;3.6;2.6;;;;;;;21.31;35.46875;941.6051;;;;
2020/05/17 16:57:08;;;;;;;3;1.8;;;;;;;20.9;35.41211;941.5338;;;;
2020/05/17 17:01:58;;;;;;;6.1;3.5;;;;;;;20.78;35.92871;941.5906;;;;
2020/05/17 17:04:27;;;;;;;2.9;1.8;;;;;;;20.7;35.20898;941.5944;;;;
2020/05/17 17:06:57;;;;;;;2.3;1.7;;;;;;;20.49;36.08105;941.6031;;;;
2020/05/17 17:09:52;;;;;;;2.6;2;;;;;;;20.48;36.54785;941.6428;;;;
2020/05/17 17:11:47;;;;;;;3.3;2.2;;;;;;;20.4;36.87891;941.6473;;;;
2020/05/17 17:14:13;;;;;;;3.3;1.9;;;;;;;20.3;36.94043;941.6344;;;;
2020/05/17 17:19:18;;;;;;;2.6;1.8;;;;;;;20.19;36.59277;941.6802;;;;
2020/05/17 17:23:06;;;;;;;4.1;1.9;;;;;;;20.17;36.96387;941.6775;;;;
2020/05/17 17:24:13;;;;;;;2.8;1.8;;;;;;;20.02;37.76953;941.7429;;;;
2020/05/17 17:26:40;;;;;;;3.2;2;;;;;;;20.04;37.75977;941.7651;;;;
2020/05/17 17:29:12;;;;;;;3.2;1.9;;;;;;;20.07;37.55176;941.7783;;;;
2020/05/17 17:39:28;;;;;;;3;1.9;;;;;;;19.8;39.14941;941.7932;;;;
2020/05/17 17:42:03;;;;;;;1.9;1.7;;;;;;;19.72;39.23535;941.8318;;;;
2020/05/17 17:45:39;;;;;;;3;1.8;;;;;;;19.61;38.56152;941.8119;;;;
2020/05/17 17:47:28;;;;;;;2.3;2.1;;;;;;;19.62;39.64648;941.8102;;;;
2020/05/17 17:49:43;;;;;;;4.5;2;;;;;;;19.51;39.32227;941.7869;;;;
2020/05/17 17:53:04;;;;;;;3.9;2;;;;;;;19.54;39.58203;941.7882;;;;
2020/05/17 17:57:24;;;;;;;3.9;1.9;;;;;;;19.55;39.32617;941.8276;;;;
2020/05/17 18:02:37;;;;;;;3.3;2.1;;;;;;;19.42;42.32031;941.875;;;;
2020/05/17 18:10:15;;;;;;;3.9;2.2;;;;;;;18.83;47.02441;941.866;;;;
2020/05/17 18:18:03;;;;;;;3;2.1;;;;;;;18.36;47.82227;941.9246;;;;
2020/05/17 18:20:02;;;;;;;5.3;2.8;;;;;;;18.16;49.58887;941.9659;;;;
2020/05/17 18:22:38;;;;;;;5;2.6;;;;;;;17.83;51.03809;941.9966;;;;
2020/05/17 18:29:41;;;;;;;3.9;2.7;;;;;;;17.02;53.13574;942.0577;;;;
2020/05/17 18:36:18;;;;;;;5.6;2.8;;;;;;;17.07;49.0957;942.0798;;;;
2020/05/17 18:40:10;;;;;;;2.9;2.2;;;;;;;17.18;48.34277;942.1326;;;;
2020/05/17 18:45:07;;;;;;;2.8;2.1;;;;;;;17.36;44.87207;942.1528;;;;
2020/05/17 18:54:26;;;;;;;4.8;2.4;;;;;;;17.14;49.64844;942.199;;;;
2020/05/17 18:57:50;;;;;;;3.6;2.5;;;;;;;16.98;49.24805;942.2372;;;;
2020/05/17 19:09:34;;;;;;;3.5;2.6;;;;;;;16.09;52.12109;942.4494;;;;
2020/05/17 19:11:53;;;;;;;4.5;2.8;;;;;;;16.03;53.47754;942.5428;;;;
2020/05/17 19:14:16;;;;;;;3.4;2.9;;;;;;;16.15;53.20313;942.5639;;;;
2020/05/17 19:16:43;;;;;;;4.2;2.8;;;;;;;16.24;52.66992;942.6321;;;;
2020/05/17 19:19:23;;;;;;;4.3;2.6;;;;;;;16.27;51.81738;942.6697;;;;
2020/05/17 19:22:32;;;;;;;5.5;2.7;;;;;;;16.38;52.22363;942.7888;;;;
2020/05/17 19:24:18;;;;;;;5;2.8;;;;;;;16.36;52.1416;942.8002;;;;
2020/05/17 19:26:47;;;;;;;7;3.2;;;;;;;16.47;52.28027;942.8649;;;;
2020/05/17 19:29:12;;;;;;;4.6;2.8;;;;;;;16.41;51.64941;942.8425;;;;
2020/05/17 19:31:48;;;;;;;6.7;3;;;;;;;16.39;51.99316;942.9021;;;;
2020/05/17 19:34:24;;;;;;;5.4;2.9;;;;;;;16.35;52.625;942.9666;;;;
2020/05/17 19:36:49;;;;;;;4.3;2.8;;;;;;;16.27;53.71582;943.004;;;;
2020/05/17 19:39:24;;;;;;;5.4;2.9;;;;;;;16.34;52.7627;943.0302;;;;
2020/05/17 19:42:03;;;;;;;6.1;2.7;;;;;;;16.23;52.96973;943.0909;;;;
2020/05/17 19:44:34;;;;;;;3.8;2.8;;;;;;;16.1;53.28906;943.0945;;;;
2020/05/17 19:46:59;;;;;;;7.2;3;;;;;;;16.09;53.68066;943.1347;;;;
2020/05/17 19:49:36;;;;;;;7;3;;;;;;;16.01;54.2373;943.2014;;;;
2020/05/17 19:52:01;;;;;;;5.1;3;;;;;;;16.04;54.60059;943.2505;;;;
2020/05/17 19:54:26;;;;;;;6.3;3.2;;;;;;;15.86;55.86035;943.2452;;;;
2020/05/17 19:56:51;;;;;;;6.2;3.3;;;;;;;15.93;54.9209;943.3189;;;;
2020/05/17 19:59:30;;;;;;;4.7;3.2;;;;;;;15.89;54.89355;943.3398;;;;
2020/05/17 20:01:58;;;;;;;4.4;2.9;;;;;;;15.77;55.76953;943.348;;;;
2020/05/17 20:04:27;;;;;;;4.4;2.9;;;;;;;15.81;55.79688;943.3301;;;;
2020/05/17 20:06:53;;;;;;;5.3;2.9;;;;;;;15.56;56.34277;943.4835;;;;
2020/05/17 20:09:33;;;;;;;3.7;2.7;;;;;;;15.58;56.64551;943.4881;;;;
2020/05/17 20:12:00;;;;;;;7.2;3.2;;;;;;;15.58;57.59082;943.5323;;;;
2020/05/17 20:14:25;;;;;;;7.2;3.3;;;;;;;15.51;58.80859;943.5308;;;;
2020/05/17 20:17:06;;;;;;;5.2;3;;;;;;;15.46;57.87598;943.5598;;;;
2020/05/17 20:19:42;;;;;;;5.7;3;;;;;;;15.42;57.88379;943.6376;;;;
2020/05/17 20:22:10;;;;;;;4.9;3.1;;;;;;;15.38;56.52734;943.582;;;;
2020/05/17 20:24:37;;;;;;;5.9;2.9;;;;;;;15.16;57.07617;943.6435;;;;
2020/05/17 20:27:12;;;;;;;4.9;3.3;;;;;;;15.04;58.06348;943.6788;;;;
2020/05/17 20:29:37;;;;;;;5.3;3.7;;;;;;;14.93;58.80957;943.676;;;;
2020/05/17 20:32:12;;;;;;;8.6;3.4;;;;;;;15;58.55469;943.7402;;;;
2020/05/17 20:34:41;;;;;;;7.1;3.3;;;;;;;15.06;58.06641;943.7558;;;;
2020/05/17 20:37:06;;;;;;;12.3;3.4;;;;;;;14.98;58.37793;943.7778;;;;
2020/05/17 20:39:34;;;;;;;10.8;3.3;;;;;;;14.87;59.05664;943.8089;;;;
2020/05/17 20:42:10;;;;;;;8.1;3.3;;;;;;;14.84;59.30566;943.7992;;;;
2020/05/17 20:44:35;;;;;;;8.2;3.4;;;;;;;14.8;59.11426;943.8285;;;;
2020/05/17 20:47:04;;;;;;;11.2;3.6;;;;;;;14.71;59.73633;943.8115;;;;
2020/05/17 20:49:31;;;;;;;11.4;3.9;;;;;;;14.64;60.49902;943.7913;;;;
2020/05/17 20:52:15;;;;;;;8.1;3.4;;;;;;;14.62;61.36035;943.8361;;;;
2020/05/17 20:54:41;;;;;;;7.4;3.8;;;;;;;14.46;61.54492;943.8201;;;;
2020/05/17 20:57:06;;;;;;;9.2;4;;;;;;;14.43;62.51074;943.8159;;;;
2020/05/17 20:59:33;;;;;;;10.3;3.9;;;;;;;14.4;61.34277;943.8273;;;;
2020/05/17 21:02:05;;;;;;;8.1;4;;;;;;;14.38;61.12012;943.8592;;;;
2020/05/17 21:04:42;;;;;;;7;3.9;;;;;;;14.25;61.91992;943.8923;;;;
2020/05/17 21:07:11;;;;;;;8.4;3.8;;;;;;;14.29;62.4668;943.8541;;;;
2020/05/17 21:09:40;;;;;;;7.4;4;;;;;;;14.05;63.68652;943.8655;;;;
2020/05/17 21:12:06;;;;;;;9.5;4.5;;;;;;;13.97;63.81348;943.8328;;;;
2020/05/17 21:14:31;;;;;;;8.3;4.2;;;;;;;13.99;63.63281;943.8569;;;;
2020/05/17 21:16:58;;;;;;;9.3;4.3;;;;;;;14;63.53027;943.8571;;;;
2020/05/17 21:20:09;;;;;;;6.3;3.7;;;;;;;13.97;62.98535;943.848;;;;
2020/05/17 21:24:51;;;;;;;6.8;3.8;;;;;;;14.04;62.37305;943.8998;;;;
2020/05/17 21:27:13;;;;;;;5;3.6;;;;;;;13.89;63.05371;943.842;;;;
2020/05/17 21:29:40;;;;;;;5.9;3.9;;;;;;;13.78;63.7041;943.8555;;;;
2020/05/17 21:32:05;;;;;;;5.9;3.9;;;;;;;13.75;63.87305;943.9297;;;;
2020/05/17 21:34:30;;;;;;;7.5;4.1;;;;;;;13.75;64.11426;943.9274;;;;
2020/05/17 21:37:06;;;;;;;6.8;3.6;;;;;;;13.69;64.03711;943.9197;;;;
2020/05/17 21:39:39;;;;;;;5.3;3.4;;;;;;;13.7;63.17578;943.9534;;;;
2020/05/17 21:42:04;;;;;;;5.8;3.9;;;;;;;13.69;63.10547;943.999;;;;
2020/05/17 21:44:30;;;;;;;6.5;3.6;;;;;;;13.5;63.45801;943.9766;;;;
2020/05/17 21:46:57;;;;;;;6.1;4;;;;;;;13.4;63.93652;943.993;;;;
2020/05/17 21:49:25;;;;;;;5.6;4;;;;;;;13.39;64.76367;944.0347;;;;
2020/05/17 21:52:00;;;;;;;6.5;4;;;;;;;13.36;64.94238;944.0472;;;;
2020/05/17 21:54:30;;;;;;;6.5;3.9;;;;;;;13.34;65.19141;944.035;;;;
2020/05/17 21:57:02;;;;;;;5.5;3.8;;;;;;;13.45;64.09375;943.9786;;;;
2020/05/17 21:59:27;;;;;;;6.1;3.6;;;;;;;13.4;64.17773;944.0195;;;;
2020/05/17 22:01:54;;;;;;;7;3.6;;;;;;;13.3;64.46191;944.0611;;;;
2020/05/17 22:04:20;;;;;;;5.1;3.7;;;;;;;13.18;65.55859;944.0213;;;;
2020/05/17 22:06:54;;;;;;;4.5;4.1;;;;;;;13.19;65.59473;944.0999;;;;
2020/05/17 22:09:25;;;;;;;4.7;3.9;;;;;;;13.19;65.71094;944.0639;;;;
2020/05/17 22:11:50;;;;;;;6.3;3.8;;;;;;;13.25;65.01758;944.0831;;;;
2020/05/17 22:14:17;;;;;;;5.2;4;;;;;;;13.15;65.26758;944.044;;;;
2020/05/17 22:19:33;;;;;;;3.9;3.5;;;;;;;12.95;65.75391;943.9716;;;;
2020/05/17 22:22:09;;;;;;;4.5;3.7;;;;;;;12.79;66.31543;943.9881;;;;
2020/05/17 22:24:33;;;;;;;4.6;3.8;;;;;;;12.8;66.9707;943.9011;;;;
2020/05/17 22:26:46;;;;;;;4.4;4;;;;;;;12.8;67.03906;943.9986;;;;
2020/05/17 22:29:21;;;;;;;5.5;3.9;;;;;;;12.7;67.63184;943.9056;;;;
2020/05/17 22:32:11;;;;;;;4.8;3.9;;;;;;;12.67;67.71973;944.0028;;;;
2020/05/17 22:34:29;;;;;;;5.1;4.1;;;;;;;12.62;67.72266;943.9568;;;;
2020/05/17 22:37:06;;;;;;;4.8;3.8;;;;;;;12.59;67.44336;943.9338;;;;
2020/05/17 22:39:31;;;;;;;4.8;3.5;;;;;;;12.37;67.5;943.9893;;;;
2020/05/17 22:41:58;;;;;;;4.8;4;;;;;;;12.21;68.67969;944.0223;;;;
2020/05/17 22:44:26;;;;;;;5;4.1;;;;;;;12.18;69.03027;943.9972;;;;
2020/05/17 22:47:03;;;;;;;4.6;3.9;;;;;;;12.36;68.25488;943.9916;;;;
2020/05/17 22:49:56;;;;;;;6;3.9;;;;;;;12.4;67.74512;943.9944;;;;
2020/05/17 22:54:36;;;;;;;4.2;3.7;;;;;;;12.48;67.11523;944.0764;;;;
2020/05/17 22:57:06;;;;;;;5.9;3.7;;;;;;;12.45;66.99805;944.0082;;;;
2020/05/17 22:59:40;;;;;;;4.3;3.7;;;;;;;12.45;66.85938;944.0201;;;;
2020/05/17 23:02:09;;;;;;;4.4;3.9;;;;;;;12.37;67.14453;944.007;;;;
2020/05/17 23:04:39;;;;;;;6.4;4;;;;;;;12.34;67.12891;943.9787;;;;
2020/05/17 23:07:05;;;;;;;5.8;4.1;;;;;;;12.24;67.43457;943.9814;;;;
2020/05/17 23:09:35;;;;;;;5.7;4.2;;;;;;;12.11;68.18262;943.9531;;;;
2020/05/17 23:15:02;;;;;;;6;4.3;;;;;;;12.15;68.45215;943.9489;;;;
2020/05/17 23:17:20;;;;;;;4.9;3.8;;;;;;;12.16;68.01758;943.9083;;;;
2020/05/17 23:19:36;;;;;;;4.1;3.6;;;;;;;12.11;68.13672;943.9372;;;;
2020/05/17 23:22:19;;;;;;;6.7;3.7;;;;;;;12.13;68.02539;943.9135;;;;
2020/05/17 23:24:25;;;;;;;4.8;3.7;;;;;;;12.11;68.06836;943.882;;;;
2020/05/17 23:27:00;;;;;;;7.1;3.5;;;;;;;12.05;68.23047;943.8566;;;;
2020/05/17 23:32:20;;;;;;;5.6;4;;;;;;;11.94;68.6123;943.8381;;;;
2020/05/17 23:34:31;;;;;;;4.3;3.9;;;;;;;11.95;68.40918;943.942;;;;
2020/05/17 23:37:23;;;;;;;5.3;3.9;;;;;;;11.91;68.29883;943.9288;;;;
2020/05/17 23:39:44;;;;;;;13.6;5.4;;;;;;;11.65;69.16309;943.9309;;;;
2020/05/17 23:42:06;;;;;;;8.5;4.5;;;;;;;11.62;69.52539;943.9433;;;;
2020/05/17 23:44:36;;;;;;;11.6;4.3;;;;;;;11.67;69.17773;943.9719;;;;
2020/05/17 23:47:23;;;;;;;4.6;3.8;;;;;;;11.65;69.03711;943.994;;;;
2020/05/17 23:49:48;;;;;;;4.5;3.9;;;;;;;11.59;69.21191;943.941;;;;
2020/05/17 23:52:18;;;;;;;4.7;3.6;;;;;;;11.53;69.30469;943.9194;;;;
2020/05/17 23:55:03;;;;;;;4.4;3.7;;;;;;;11.54;69.21387;943.9171;;;;
2020/05/17 23:57:30;;;;;;;6.1;4;;;;;;;11.49;69.50391;943.918;;;;
